sensor_id;sensor_type;location;lat;lon;timestamp;temperature;humidity
76384;SHT30;65204;48.606;7.598;2023-04-03T00:00:05;7.36;59.74
76384;SHT30;65204;48.606;7.598;2023-04-03T00:00:35;7.34;60.29
76384;SHT30;65204;48.606;7.598;2023-04-03T00:01:06;7.32;60.27
76384;SHT30;65204;48.606;7.598;2023-04-03T00:01:36;7.31;60.19
76384;SHT30;65204;48.606;7.598;2023-04-03T00:02:08;7.30;60.29
76384;SHT30;65204;48.606;7.598;2023-04-03T00:02:38;7.31;60.02
76384;SHT30;65204;48.606;7.598;2023-04-03T00:03:10;7.27;59.51
76384;SHT30;65204;48.606;7.598;2023-04-03T00:03:41;7.32;59.48
76384;SHT30;65204;48.606;7.598;2023-04-03T00:04:11;7.32;59.95
76384;SHT30;65204;48.606;7.598;2023-04-03T00:04:42;7.30;59.48
76384;SHT30;65204;48.606;7.598;2023-04-03T00:05:12;7.24;59.41
76384;SHT30;65204;48.606;7.598;2023-04-03T00:05:42;7.23;59.32
76384;SHT30;65204;48.606;7.598;2023-04-03T00:06:13;7.21;59.51
76384;SHT30;65204;48.606;7.598;2023-04-03T00:06:43;7.23;59.53
76384;SHT30;65204;48.606;7.598;2023-04-03T00:07:13;7.23;59.66
76384;SHT30;65204;48.606;7.598;2023-04-03T00:07:45;7.28;59.89
76384;SHT30;65204;48.606;7.598;2023-04-03T00:08:15;7.25;60.19
76384;SHT30;65204;48.606;7.598;2023-04-03T00:08:45;7.21;59.76
76384;SHT30;65204;48.606;7.598;2023-04-03T00:09:16;7.18;59.10
76384;SHT30;65204;48.606;7.598;2023-04-03T00:09:46;7.20;58.75
76384;SHT30;65204;48.606;7.598;2023-04-03T00:10:17;7.20;59.39
76384;SHT30;65204;48.606;7.598;2023-04-03T00:10:47;7.14;60.08
76384;SHT30;65204;48.606;7.598;2023-04-03T00:11:18;7.14;59.88
76384;SHT30;65204;48.606;7.598;2023-04-03T00:11:49;7.14;60.13
76384;SHT30;65204;48.606;7.598;2023-04-03T00:12:19;7.15;59.62
76384;SHT30;65204;48.606;7.598;2023-04-03T00:12:49;7.13;59.64
76384;SHT30;65204;48.606;7.598;2023-04-03T00:13:20;7.13;59.80
76384;SHT30;65204;48.606;7.598;2023-04-03T00:13:50;7.07;59.77
76384;SHT30;65204;48.606;7.598;2023-04-03T00:14:20;7.01;60.02
76384;SHT30;65204;48.606;7.598;2023-04-03T00:14:51;7.03;60.19
76384;SHT30;65204;48.606;7.598;2023-04-03T00:15:21;7.08;60.64
76384;SHT30;65204;48.606;7.598;2023-04-03T00:15:51;7.07;60.71
76384;SHT30;65204;48.606;7.598;2023-04-03T00:16:22;7.08;60.65
76384;SHT30;65204;48.606;7.598;2023-04-03T00:16:52;7.04;59.97
76384;SHT30;65204;48.606;7.598;2023-04-03T00:17:23;7.05;59.84
76384;SHT30;65204;48.606;7.598;2023-04-03T00:17:53;7.00;59.87
76384;SHT30;65204;48.606;7.598;2023-04-03T00:18:24;7.01;60.23
76384;SHT30;65204;48.606;7.598;2023-04-03T00:18:54;7.01;60.60
76384;SHT30;65204;48.606;7.598;2023-04-03T00:19:25;6.94;60.81
76384;SHT30;65204;48.606;7.598;2023-04-03T00:19:55;7.00;60.99
76384;SHT30;65204;48.606;7.598;2023-04-03T00:20:25;6.97;60.73
76384;SHT30;65204;48.606;7.598;2023-04-03T00:20:57;6.99;60.72
76384;SHT30;65204;48.606;7.598;2023-04-03T00:21:27;7.00;60.79
76384;SHT30;65204;48.606;7.598;2023-04-03T00:21:58;7.03;60.17
76384;SHT30;65204;48.606;7.598;2023-04-03T00:22:28;7.00;59.84
76384;SHT30;65204;48.606;7.598;2023-04-03T00:22:59;7.03;60.06
76384;SHT30;65204;48.606;7.598;2023-04-03T00:23:29;7.01;60.51
76384;SHT30;65204;48.606;7.598;2023-04-03T00:24:00;7.01;60.93
76384;SHT30;65204;48.606;7.598;2023-04-03T00:24:30;7.03;60.95
76384;SHT30;65204;48.606;7.598;2023-04-03T00:25:00;6.92;60.84
76384;SHT30;65204;48.606;7.598;2023-04-03T00:25:31;6.99;61.16
76384;SHT30;65204;48.606;7.598;2023-04-03T00:26:01;6.97;60.83
76384;SHT30;65204;48.606;7.598;2023-04-03T00:26:32;6.99;60.72
76384;SHT30;65204;48.606;7.598;2023-04-03T00:27:02;6.99;60.79
76384;SHT30;65204;48.606;7.598;2023-04-03T00:27:32;6.97;60.99
76384;SHT30;65204;48.606;7.598;2023-04-03T00:28:04;6.96;60.47
76384;SHT30;65204;48.606;7.598;2023-04-03T00:28:34;6.92;60.22
76384;SHT30;65204;48.606;7.598;2023-04-03T00:29:05;6.93;60.70
76384;SHT30;65204;48.606;7.598;2023-04-03T00:29:35;6.93;61.25
76384;SHT30;65204;48.606;7.598;2023-04-03T00:30:07;6.97;61.22
76384;SHT30;65204;48.606;7.598;2023-04-03T00:30:38;6.96;61.53
76384;SHT30;65204;48.606;7.598;2023-04-03T00:31:09;7.00;61.48
76384;SHT30;65204;48.606;7.598;2023-04-03T00:31:39;6.97;61.36
76384;SHT30;65204;48.606;7.598;2023-04-03T00:32:10;7.03;61.47
76384;SHT30;65204;48.606;7.598;2023-04-03T00:32:40;7.03;61.53
76384;SHT30;65204;48.606;7.598;2023-04-03T00:33:12;7.05;61.88
76384;SHT30;65204;48.606;7.598;2023-04-03T00:33:43;7.03;62.26
76384;SHT30;65204;48.606;7.598;2023-04-03T00:34:14;6.97;61.78
76384;SHT30;65204;48.606;7.598;2023-04-03T00:34:44;6.92;61.46
76384;SHT30;65204;48.606;7.598;2023-04-03T00:35:14;6.97;61.43
76384;SHT30;65204;48.606;7.598;2023-04-03T00:35:48;6.94;61.80
76384;SHT30;65204;48.606;7.598;2023-04-03T00:36:19;7.00;61.75
76384;SHT30;65204;48.606;7.598;2023-04-03T00:36:49;7.00;62.07
76384;SHT30;65204;48.606;7.598;2023-04-03T00:37:19;7.01;62.30
76384;SHT30;65204;48.606;7.598;2023-04-03T00:37:51;7.03;62.55
76384;SHT30;65204;48.606;7.598;2023-04-03T00:38:22;7.04;62.75
76384;SHT30;65204;48.606;7.598;2023-04-03T00:38:52;7.04;62.56
76384;SHT30;65204;48.606;7.598;2023-04-03T00:39:23;7.08;62.66
76384;SHT30;65204;48.606;7.598;2023-04-03T00:39:53;7.10;62.20
76384;SHT30;65204;48.606;7.598;2023-04-03T00:40:25;7.07;62.01
76384;SHT30;65204;48.606;7.598;2023-04-03T00:40:56;7.14;62.08
76384;SHT30;65204;48.606;7.598;2023-04-03T00:41:27;7.17;62.15
76384;SHT30;65204;48.606;7.598;2023-04-03T00:41:57;7.15;61.92
76384;SHT30;65204;48.606;7.598;2023-04-03T00:42:27;7.14;61.96
76384;SHT30;65204;48.606;7.598;2023-04-03T00:42:59;7.13;62.16
76384;SHT30;65204;48.606;7.598;2023-04-03T00:43:30;7.15;62.27
76384;SHT30;65204;48.606;7.598;2023-04-03T00:44:00;7.17;62.16
76384;SHT30;65204;48.606;7.598;2023-04-03T00:45:35;7.21;62.60
76384;SHT30;65204;48.606;7.598;2023-04-03T00:46:05;7.23;62.37
76384;SHT30;65204;48.606;7.598;2023-04-03T00:46:36;7.21;61.90
76384;SHT30;65204;48.606;7.598;2023-04-03T00:47:09;7.20;62.24
76384;SHT30;65204;48.606;7.598;2023-04-03T00:47:41;7.18;62.34
76384;SHT30;65204;48.606;7.598;2023-04-03T00:48:16;7.24;62.48
76384;SHT30;65204;48.606;7.598;2023-04-03T00:48:49;7.27;62.38
76384;SHT30;65204;48.606;7.598;2023-04-03T00:49:19;7.30;62.29
76384;SHT30;65204;48.606;7.598;2023-04-03T00:49:51;7.28;61.89
76384;SHT30;65204;48.606;7.598;2023-04-03T00:50:22;7.35;61.93
76384;SHT30;65204;48.606;7.598;2023-04-03T00:50:53;7.32;62.00
76384;SHT30;65204;48.606;7.598;2023-04-03T00:51:26;7.38;61.50
76384;SHT30;65204;48.606;7.598;2023-04-03T00:51:57;7.35;61.76
76384;SHT30;65204;48.606;7.598;2023-04-03T00:52:29;7.36;61.73
76384;SHT30;65204;48.606;7.598;2023-04-03T00:53:00;7.32;61.74
76384;SHT30;65204;48.606;7.598;2023-04-03T00:53:37;7.35;60.84
76384;SHT30;65204;48.606;7.598;2023-04-03T00:54:08;7.34;60.82
76384;SHT30;65204;48.606;7.598;2023-04-03T00:54:41;7.40;60.94
76384;SHT30;65204;48.606;7.598;2023-04-03T00:55:13;7.38;61.15
76384;SHT30;65204;48.606;7.598;2023-04-03T00:55:47;7.32;61.31
76384;SHT30;65204;48.606;7.598;2023-04-03T00:56:19;7.36;61.30
76384;SHT30;65204;48.606;7.598;2023-04-03T00:56:54;7.31;60.59
76384;SHT30;65204;48.606;7.598;2023-04-03T00:57:26;7.34;61.10
76384;SHT30;65204;48.606;7.598;2023-04-03T00:57:57;7.32;61.12
76384;SHT30;65204;48.606;7.598;2023-04-03T00:58:37;7.35;61.19
76384;SHT30;65204;48.606;7.598;2023-04-03T00:59:13;7.28;60.89
76384;SHT30;65204;48.606;7.598;2023-04-03T00:59:48;7.30;61.34
76384;SHT30;65204;48.606;7.598;2023-04-03T01:00:20;7.24;61.19
76384;SHT30;65204;48.606;7.598;2023-04-03T01:00:55;7.28;60.75
76384;SHT30;65204;48.606;7.598;2023-04-03T01:01:28;7.18;60.69
76384;SHT30;65204;48.606;7.598;2023-04-03T01:02:00;7.25;61.15
76384;SHT30;65204;48.606;7.598;2023-04-03T01:02:30;7.25;61.12
76384;SHT30;65204;48.606;7.598;2023-04-03T01:03:01;7.21;60.58
76384;SHT30;65204;48.606;7.598;2023-04-03T01:03:31;7.21;60.68
76384;SHT30;65204;48.606;7.598;2023-04-03T01:04:02;7.20;60.88
76384;SHT30;65204;48.606;7.598;2023-04-03T01:04:41;7.24;61.06
76384;SHT30;65204;48.606;7.598;2023-04-03T01:05:12;7.21;60.91
76384;SHT30;65204;48.606;7.598;2023-04-03T01:05:43;7.20;60.87
76384;SHT30;65204;48.606;7.598;2023-04-03T01:06:16;7.21;60.91
76384;SHT30;65204;48.606;7.598;2023-04-03T01:06:47;7.25;60.86
76384;SHT30;65204;48.606;7.598;2023-04-03T01:07:29;7.23;60.48
76384;SHT30;65204;48.606;7.598;2023-04-03T01:08:00;7.17;60.27
76384;SHT30;65204;48.606;7.598;2023-04-03T01:08:30;7.15;60.40
76384;SHT30;65204;48.606;7.598;2023-04-03T01:09:02;7.15;60.38
76384;SHT30;65204;48.606;7.598;2023-04-03T01:09:33;7.14;60.17
76384;SHT30;65204;48.606;7.598;2023-04-03T01:10:09;7.07;60.93
76384;SHT30;65204;48.606;7.598;2023-04-03T01:10:40;7.11;60.95
76384;SHT30;65204;48.606;7.598;2023-04-03T01:11:11;7.11;61.20
76384;SHT30;65204;48.606;7.598;2023-04-03T01:11:41;7.11;60.55
76384;SHT30;65204;48.606;7.598;2023-04-03T01:12:19;7.11;60.76
76384;SHT30;65204;48.606;7.598;2023-04-03T01:12:50;7.10;60.69
76384;SHT30;65204;48.606;7.598;2023-04-03T01:13:32;7.08;60.53
76384;SHT30;65204;48.606;7.598;2023-04-03T01:14:02;7.07;60.79
76384;SHT30;65204;48.606;7.598;2023-04-03T01:14:32;7.08;61.26
76384;SHT30;65204;48.606;7.598;2023-04-03T01:15:38;7.08;60.34
76384;SHT30;65204;48.606;7.598;2023-04-03T01:16:08;7.04;60.43
76384;SHT30;65204;48.606;7.598;2023-04-03T01:16:39;7.04;61.03
76384;SHT30;65204;48.606;7.598;2023-04-03T01:17:59;7.05;60.86
76384;SHT30;65204;48.606;7.598;2023-04-03T01:18:31;7.03;61.39
76384;SHT30;65204;48.606;7.598;2023-04-03T01:19:03;7.05;61.12
76384;SHT30;65204;48.606;7.598;2023-04-03T01:19:36;6.99;60.57
76384;SHT30;65204;48.606;7.598;2023-04-03T01:22:17;6.97;60.94
76384;SHT30;65204;48.606;7.598;2023-04-03T01:22:59;6.96;61.47
76384;SHT30;65204;48.606;7.598;2023-04-03T01:24:07;6.89;61.43
76384;SHT30;65204;48.606;7.598;2023-04-03T01:24:40;6.90;61.48
76384;SHT30;65204;48.606;7.598;2023-04-03T01:25:11;6.86;61.54
76384;SHT30;65204;48.606;7.598;2023-04-03T01:25:47;6.75;61.27
76384;SHT30;65204;48.606;7.598;2023-04-03T01:26:18;6.82;61.48
76384;SHT30;65204;48.606;7.598;2023-04-03T01:26:48;6.84;61.51
76384;SHT30;65204;48.606;7.598;2023-04-03T01:27:19;6.73;61.28
76384;SHT30;65204;48.606;7.598;2023-04-03T01:27:51;6.84;61.76
76384;SHT30;65204;48.606;7.598;2023-04-03T01:28:25;6.80;61.23
76384;SHT30;65204;48.606;7.598;2023-04-03T01:28:58;6.86;60.63
76384;SHT30;65204;48.606;7.598;2023-04-03T01:29:29;6.80;60.59
76384;SHT30;65204;48.606;7.598;2023-04-03T01:29:59;6.82;60.51
76384;SHT30;65204;48.606;7.598;2023-04-03T01:30:33;6.79;60.57
76384;SHT30;65204;48.606;7.598;2023-04-03T01:31:22;6.79;61.00
76384;SHT30;65204;48.606;7.598;2023-04-03T01:31:56;6.82;61.14
76384;SHT30;65204;48.606;7.598;2023-04-03T01:32:27;6.82;61.44
76384;SHT30;65204;48.606;7.598;2023-04-03T01:32:57;6.83;61.62
76384;SHT30;65204;48.606;7.598;2023-04-03T01:33:28;6.84;61.76
76384;SHT30;65204;48.606;7.598;2023-04-03T01:33:59;6.83;61.04
76384;SHT30;65204;48.606;7.598;2023-04-03T01:34:30;6.79;60.56
76384;SHT30;65204;48.606;7.598;2023-04-03T01:35:00;6.70;60.94
76384;SHT30;65204;48.606;7.598;2023-04-03T01:35:31;6.73;61.20
76384;SHT30;65204;48.606;7.598;2023-04-03T01:36:02;6.72;61.62
76384;SHT30;65204;48.606;7.598;2023-04-03T01:36:32;6.75;61.16
76384;SHT30;65204;48.606;7.598;2023-04-03T01:37:02;6.77;60.87
76384;SHT30;65204;48.606;7.598;2023-04-03T01:37:33;6.76;61.13
76384;SHT30;65204;48.606;7.598;2023-04-03T01:38:03;6.79;61.45
76384;SHT30;65204;48.606;7.598;2023-04-03T01:38:34;6.76;61.58
76384;SHT30;65204;48.606;7.598;2023-04-03T01:39:04;6.79;61.32
76384;SHT30;65204;48.606;7.598;2023-04-03T01:39:34;6.79;60.57
76384;SHT30;65204;48.606;7.598;2023-04-03T01:40:05;6.83;61.34
76384;SHT30;65204;48.606;7.598;2023-04-03T01:40:37;6.83;61.22
76384;SHT30;65204;48.606;7.598;2023-04-03T01:41:07;6.80;61.16
76384;SHT30;65204;48.606;7.598;2023-04-03T01:41:37;6.77;60.85
76384;SHT30;65204;48.606;7.598;2023-04-03T01:42:08;6.77;61.05
76384;SHT30;65204;48.606;7.598;2023-04-03T01:42:38;6.82;61.07
76384;SHT30;65204;48.606;7.598;2023-04-03T01:43:09;6.84;60.96
76384;SHT30;65204;48.606;7.598;2023-04-03T01:43:39;6.89;61.05
76384;SHT30;65204;48.606;7.598;2023-04-03T01:44:10;6.87;61.07
76384;SHT30;65204;48.606;7.598;2023-04-03T01:44:40;6.89;61.08
76384;SHT30;65204;48.606;7.598;2023-04-03T01:45:11;6.89;61.13
76384;SHT30;65204;48.606;7.598;2023-04-03T01:45:41;6.89;61.34
76384;SHT30;65204;48.606;7.598;2023-04-03T01:46:12;6.86;61.04
76384;SHT30;65204;48.606;7.598;2023-04-03T01:46:42;6.87;61.09
76384;SHT30;65204;48.606;7.598;2023-04-03T01:47:12;6.83;60.74
76384;SHT30;65204;48.606;7.598;2023-04-03T01:47:43;6.84;60.88
76384;SHT30;65204;48.606;7.598;2023-04-03T01:48:13;6.83;60.86
76384;SHT30;65204;48.606;7.598;2023-04-03T01:48:43;6.82;60.62
76384;SHT30;65204;48.606;7.598;2023-04-03T01:49:14;6.77;60.64
76384;SHT30;65204;48.606;7.598;2023-04-03T01:49:44;6.77;60.71
76384;SHT30;65204;48.606;7.598;2023-04-03T01:50:15;6.82;60.78
76384;SHT30;65204;48.606;7.598;2023-04-03T01:50:45;6.83;60.92
76384;SHT30;65204;48.606;7.598;2023-04-03T01:51:16;6.86;61.26
76384;SHT30;65204;48.606;7.598;2023-04-03T01:51:47;6.86;61.37
76384;SHT30;65204;48.606;7.598;2023-04-03T01:52:17;6.82;60.94
76384;SHT30;65204;48.606;7.598;2023-04-03T01:52:47;6.82;60.66
76384;SHT30;65204;48.606;7.598;2023-04-03T01:53:18;6.82;60.53
76384;SHT30;65204;48.606;7.598;2023-04-03T01:53:48;6.82;60.00
76384;SHT30;65204;48.606;7.598;2023-04-03T01:54:18;6.77;60.16
76384;SHT30;65204;48.606;7.598;2023-04-03T01:54:49;6.73;60.33
76384;SHT30;65204;48.606;7.598;2023-04-03T01:55:20;6.76;60.15
76384;SHT30;65204;48.606;7.598;2023-04-03T01:55:50;6.77;60.13
76384;SHT30;65204;48.606;7.598;2023-04-03T01:56:21;6.82;60.28
76384;SHT30;65204;48.606;7.598;2023-04-03T01:56:51;6.82;60.74
76384;SHT30;65204;48.606;7.598;2023-04-03T01:57:22;6.83;60.79
76384;SHT30;65204;48.606;7.598;2023-04-03T01:57:52;6.87;60.93
76384;SHT30;65204;48.606;7.598;2023-04-03T01:58:22;6.80;60.87
76384;SHT30;65204;48.606;7.598;2023-04-03T01:58:53;6.80;60.99
76384;SHT30;65204;48.606;7.598;2023-04-03T01:59:23;6.72;60.51
76384;SHT30;65204;48.606;7.598;2023-04-03T01:59:54;6.66;60.72
76384;SHT30;65204;48.606;7.598;2023-04-03T02:00:24;6.63;61.17
76384;SHT30;65204;48.606;7.598;2023-04-03T02:00:54;6.75;60.82
76384;SHT30;65204;48.606;7.598;2023-04-03T02:01:26;6.76;60.16
76384;SHT30;65204;48.606;7.598;2023-04-03T02:01:56;6.76;60.04
76384;SHT30;65204;48.606;7.598;2023-04-03T02:02:27;6.79;60.01
76384;SHT30;65204;48.606;7.598;2023-04-03T02:02:57;6.84;59.98
76384;SHT30;65204;48.606;7.598;2023-04-03T02:03:27;6.84;60.22
76384;SHT30;65204;48.606;7.598;2023-04-03T02:03:58;6.89;60.97
76384;SHT30;65204;48.606;7.598;2023-04-03T02:04:28;6.86;61.06
76384;SHT30;65204;48.606;7.598;2023-04-03T02:04:58;6.92;60.63
76384;SHT30;65204;48.606;7.598;2023-04-03T02:05:29;6.93;60.36
76384;SHT30;65204;48.606;7.598;2023-04-03T02:06:00;6.89;59.89
76384;SHT30;65204;48.606;7.598;2023-04-03T02:06:30;6.94;60.16
76384;SHT30;65204;48.606;7.598;2023-04-03T02:07:00;6.92;60.27
76384;SHT30;65204;48.606;7.598;2023-04-03T02:07:31;6.94;60.01
76384;SHT30;65204;48.606;7.598;2023-04-03T02:08:01;6.94;59.77
76384;SHT30;65204;48.606;7.598;2023-04-03T02:08:31;6.99;59.95
76384;SHT30;65204;48.606;7.598;2023-04-03T02:09:03;6.92;59.94
76384;SHT30;65204;48.606;7.598;2023-04-03T02:09:33;6.90;60.28
76384;SHT30;65204;48.606;7.598;2023-04-03T02:10:04;6.90;60.42
76384;SHT30;65204;48.606;7.598;2023-04-03T02:10:34;6.87;60.10
76384;SHT30;65204;48.606;7.598;2023-04-03T02:11:04;6.89;60.00
76384;SHT30;65204;48.606;7.598;2023-04-03T02:11:35;6.89;59.83
76384;SHT30;65204;48.606;7.598;2023-04-03T02:12:06;6.83;59.71
76384;SHT30;65204;48.606;7.598;2023-04-03T02:12:36;6.84;59.88
76384;SHT30;65204;48.606;7.598;2023-04-03T02:13:06;6.80;59.57
76384;SHT30;65204;48.606;7.598;2023-04-03T02:13:37;6.84;59.70
76384;SHT30;65204;48.606;7.598;2023-04-03T02:14:07;6.84;60.08
76384;SHT30;65204;48.606;7.598;2023-04-03T02:14:37;6.86;60.15
76384;SHT30;65204;48.606;7.598;2023-04-03T02:15:08;6.79;60.34
76384;SHT30;65204;48.606;7.598;2023-04-03T02:15:39;6.83;60.39
76384;SHT30;65204;48.606;7.598;2023-04-03T02:16:10;6.86;60.87
76384;SHT30;65204;48.606;7.598;2023-04-03T02:16:41;6.84;60.95
76384;SHT30;65204;48.606;7.598;2023-04-03T02:17:11;6.84;59.90
76384;SHT30;65204;48.606;7.598;2023-04-03T02:17:42;6.82;60.07
76384;SHT30;65204;48.606;7.598;2023-04-03T02:18:12;6.83;60.30
76384;SHT30;65204;48.606;7.598;2023-04-03T02:18:42;6.84;60.47
76384;SHT30;65204;48.606;7.598;2023-04-03T02:19:13;6.80;60.54
76384;SHT30;65204;48.606;7.598;2023-04-03T02:19:43;6.86;60.97
76384;SHT30;65204;48.606;7.598;2023-04-03T02:20:14;6.86;60.85
76384;SHT30;65204;48.606;7.598;2023-04-03T02:20:47;6.80;60.58
76384;SHT30;65204;48.606;7.598;2023-04-03T02:21:18;6.84;60.04
76384;SHT30;65204;48.606;7.598;2023-04-03T02:21:48;6.83;60.02
76384;SHT30;65204;48.606;7.598;2023-04-03T02:22:19;6.83;60.10
76384;SHT30;65204;48.606;7.598;2023-04-03T02:22:50;6.76;60.65
76384;SHT30;65204;48.606;7.598;2023-04-03T02:23:20;6.80;60.68
76384;SHT30;65204;48.606;7.598;2023-04-03T02:23:51;6.83;60.59
76384;SHT30;65204;48.606;7.598;2023-04-03T02:24:21;6.76;61.03
76384;SHT30;65204;48.606;7.598;2023-04-03T02:24:51;6.79;61.22
76384;SHT30;65204;48.606;7.598;2023-04-03T02:25:22;6.80;60.93
76384;SHT30;65204;48.606;7.598;2023-04-03T02:25:52;6.76;60.58
76384;SHT30;65204;48.606;7.598;2023-04-03T02:26:23;6.73;60.40
76384;SHT30;65204;48.606;7.598;2023-04-03T02:26:53;6.70;60.33
76384;SHT30;65204;48.606;7.598;2023-04-03T02:27:23;6.72;60.53
76384;SHT30;65204;48.606;7.598;2023-04-03T02:27:54;6.69;60.60
76384;SHT30;65204;48.606;7.598;2023-04-03T02:28:24;6.68;61.09
76384;SHT30;65204;48.606;7.598;2023-04-03T02:28:55;6.69;61.35
76384;SHT30;65204;48.606;7.598;2023-04-03T02:29:25;6.72;61.50
76384;SHT30;65204;48.606;7.598;2023-04-03T02:29:56;6.70;61.57
76384;SHT30;65204;48.606;7.598;2023-04-03T02:30:26;6.72;61.18
76384;SHT30;65204;48.606;7.598;2023-04-03T02:30:56;6.72;60.95
76384;SHT30;65204;48.606;7.598;2023-04-03T02:31:27;6.72;60.68
76384;SHT30;65204;48.606;7.598;2023-04-03T02:32:00;6.73;60.94
76384;SHT30;65204;48.606;7.598;2023-04-03T02:32:33;6.76;61.16
76384;SHT30;65204;48.606;7.598;2023-04-03T02:33:03;6.79;60.82
76384;SHT30;65204;48.606;7.598;2023-04-03T02:33:35;6.72;60.89
76384;SHT30;65204;48.606;7.598;2023-04-03T02:34:06;6.75;60.91
76384;SHT30;65204;48.606;7.598;2023-04-03T02:34:37;6.72;61.04
76384;SHT30;65204;48.606;7.598;2023-04-03T02:35:08;6.76;61.12
76384;SHT30;65204;48.606;7.598;2023-04-03T02:35:39;6.79;61.11
76384;SHT30;65204;48.606;7.598;2023-04-03T02:36:10;6.80;61.10
76384;SHT30;65204;48.606;7.598;2023-04-03T02:36:40;6.79;60.68
76384;SHT30;65204;48.606;7.598;2023-04-03T02:37:10;6.77;60.56
76384;SHT30;65204;48.606;7.598;2023-04-03T02:37:41;6.75;60.44
76384;SHT30;65204;48.606;7.598;2023-04-03T02:38:12;6.72;60.76
76384;SHT30;65204;48.606;7.598;2023-04-03T02:38:42;6.75;60.67
76384;SHT30;65204;48.606;7.598;2023-04-03T02:39:13;6.73;60.89
76384;SHT30;65204;48.606;7.598;2023-04-03T02:39:43;6.72;60.33
76384;SHT30;65204;48.606;7.598;2023-04-03T02:40:14;6.73;60.73
76384;SHT30;65204;48.606;7.598;2023-04-03T02:40:44;6.75;61.25
76384;SHT30;65204;48.606;7.598;2023-04-03T02:41:15;6.77;61.11
76384;SHT30;65204;48.606;7.598;2023-04-03T02:41:46;6.70;60.81
76384;SHT30;65204;48.606;7.598;2023-04-03T02:42:16;6.69;60.78
76384;SHT30;65204;48.606;7.598;2023-04-03T02:42:46;6.75;60.78
76384;SHT30;65204;48.606;7.598;2023-04-03T02:43:17;6.73;61.18
76384;SHT30;65204;48.606;7.598;2023-04-03T02:43:48;6.77;61.12
76384;SHT30;65204;48.606;7.598;2023-04-03T02:44:18;6.76;60.60
76384;SHT30;65204;48.606;7.598;2023-04-03T02:44:48;6.72;60.95
76384;SHT30;65204;48.606;7.598;2023-04-03T02:45:19;6.76;61.23
76384;SHT30;65204;48.606;7.598;2023-04-03T02:45:49;6.75;61.01
76384;SHT30;65204;48.606;7.598;2023-04-03T02:46:20;6.76;60.77
76384;SHT30;65204;48.606;7.598;2023-04-03T02:46:50;6.73;60.71
76384;SHT30;65204;48.606;7.598;2023-04-03T02:47:21;6.66;60.57
76384;SHT30;65204;48.606;7.598;2023-04-03T02:47:51;6.66;60.50
76384;SHT30;65204;48.606;7.598;2023-04-03T02:48:22;6.68;60.56
76384;SHT30;65204;48.606;7.598;2023-04-03T02:48:53;6.62;60.64
76384;SHT30;65204;48.606;7.598;2023-04-03T02:49:23;6.63;60.63
76384;SHT30;65204;48.606;7.598;2023-04-03T02:49:58;6.50;60.65
76384;SHT30;65204;48.606;7.598;2023-04-03T02:50:31;6.62;60.31
76384;SHT30;65204;48.606;7.598;2023-04-03T02:52:34;6.59;60.89
76384;SHT30;65204;48.606;7.598;2023-04-03T02:53:04;6.57;61.04
76384;SHT30;65204;48.606;7.598;2023-04-03T02:53:35;6.62;60.97
76384;SHT30;65204;48.606;7.598;2023-04-03T02:54:05;6.60;60.99
76384;SHT30;65204;48.606;7.598;2023-04-03T02:54:35;6.60;60.62
76384;SHT30;65204;48.606;7.598;2023-04-03T02:55:06;6.62;60.74
76384;SHT30;65204;48.606;7.598;2023-04-03T02:55:37;6.59;60.91
76384;SHT30;65204;48.606;7.598;2023-04-03T02:56:07;6.60;60.38
76384;SHT30;65204;48.606;7.598;2023-04-03T02:56:37;6.57;60.08
76384;SHT30;65204;48.606;7.598;2023-04-03T02:57:08;6.56;60.31
76384;SHT30;65204;48.606;7.598;2023-04-03T02:57:41;6.52;60.54
76384;SHT30;65204;48.606;7.598;2023-04-03T02:58:11;6.52;61.04
76384;SHT30;65204;48.606;7.598;2023-04-03T02:58:42;6.53;61.26
76384;SHT30;65204;48.606;7.598;2023-04-03T02:59:12;6.53;60.87
76384;SHT30;65204;48.606;7.598;2023-04-03T02:59:42;6.53;61.20
76384;SHT30;65204;48.606;7.598;2023-04-03T03:00:14;6.53;61.34
76384;SHT30;65204;48.606;7.598;2023-04-03T03:00:44;6.54;61.24
76384;SHT30;65204;48.606;7.598;2023-04-03T03:01:15;6.52;60.83
76384;SHT30;65204;48.606;7.598;2023-04-03T03:01:45;6.57;61.33
76384;SHT30;65204;48.606;7.598;2023-04-03T03:02:16;6.54;61.20
76384;SHT30;65204;48.606;7.598;2023-04-03T03:02:48;6.54;61.14
76384;SHT30;65204;48.606;7.598;2023-04-03T03:03:18;6.50;60.89
76384;SHT30;65204;48.606;7.598;2023-04-03T03:03:49;6.54;61.08
76384;SHT30;65204;48.606;7.598;2023-04-03T03:04:19;6.57;61.48
76384;SHT30;65204;48.606;7.598;2023-04-03T03:04:49;6.56;61.53
76384;SHT30;65204;48.606;7.598;2023-04-03T03:05:20;6.57;61.71
76384;SHT30;65204;48.606;7.598;2023-04-03T03:06:01;6.59;61.79
76384;SHT30;65204;48.606;7.598;2023-04-03T03:06:31;6.59;61.19
76384;SHT30;65204;48.606;7.598;2023-04-03T03:07:02;6.60;61.14
76384;SHT30;65204;48.606;7.598;2023-04-03T03:07:33;6.52;61.07
76384;SHT30;65204;48.606;7.598;2023-04-03T03:08:03;6.60;60.54
76384;SHT30;65204;48.606;7.598;2023-04-03T03:08:34;6.53;60.35
76384;SHT30;65204;48.606;7.598;2023-04-03T03:09:05;6.56;60.60
76384;SHT30;65204;48.606;7.598;2023-04-03T03:09:36;6.59;60.77
76384;SHT30;65204;48.606;7.598;2023-04-03T03:10:06;6.62;60.98
76384;SHT30;65204;48.606;7.598;2023-04-03T03:10:37;6.62;60.78
76384;SHT30;65204;48.606;7.598;2023-04-03T03:11:07;6.65;60.73
76384;SHT30;65204;48.606;7.598;2023-04-03T03:11:38;6.60;60.99
76384;SHT30;65204;48.606;7.598;2023-04-03T03:12:08;6.59;61.19
76384;SHT30;65204;48.606;7.598;2023-04-03T03:12:39;6.63;61.32
76384;SHT30;65204;48.606;7.598;2023-04-03T03:13:10;6.60;61.31
76384;SHT30;65204;48.606;7.598;2023-04-03T03:13:40;6.65;60.82
76384;SHT30;65204;48.606;7.598;2023-04-03T03:14:11;6.65;60.89
76384;SHT30;65204;48.606;7.598;2023-04-03T03:14:41;6.66;61.11
76384;SHT30;65204;48.606;7.598;2023-04-03T03:15:13;6.69;60.69
76384;SHT30;65204;48.606;7.598;2023-04-03T03:15:43;6.69;60.32
76384;SHT30;65204;48.606;7.598;2023-04-03T03:16:13;6.66;60.45
76384;SHT30;65204;48.606;7.598;2023-04-03T03:16:44;6.66;60.08
76384;SHT30;65204;48.606;7.598;2023-04-03T03:17:14;6.65;60.22
76384;SHT30;65204;48.606;7.598;2023-04-03T03:17:45;6.60;60.60
76384;SHT30;65204;48.606;7.598;2023-04-03T03:18:16;6.65;60.92
76384;SHT30;65204;48.606;7.598;2023-04-03T03:18:46;6.42;61.14
76384;SHT30;65204;48.606;7.598;2023-04-03T03:19:17;6.38;61.08
76384;SHT30;65204;48.606;7.598;2023-04-03T03:19:47;6.41;61.08
76384;SHT30;65204;48.606;7.598;2023-04-03T03:20:17;6.33;61.20
76384;SHT30;65204;48.606;7.598;2023-04-03T03:20:55;6.15;61.73
76384;SHT30;65204;48.606;7.598;2023-04-03T03:21:26;6.22;62.24
76384;SHT30;65204;48.606;7.598;2023-04-03T03:21:57;6.18;62.18
76384;SHT30;65204;48.606;7.598;2023-04-03T03:22:27;6.19;61.88
76384;SHT30;65204;48.606;7.598;2023-04-03T03:22:58;6.11;62.11
76384;SHT30;65204;48.606;7.598;2023-04-03T03:23:30;6.11;62.01
76384;SHT30;65204;48.606;7.598;2023-04-03T03:24:02;6.24;61.85
76384;SHT30;65204;48.606;7.598;2023-04-03T03:24:32;6.28;61.80
76384;SHT30;65204;48.606;7.598;2023-04-03T03:25:03;6.22;62.03
76384;SHT30;65204;48.606;7.598;2023-04-03T03:25:38;6.12;61.61
76384;SHT30;65204;48.606;7.598;2023-04-03T03:26:10;6.24;61.37